»·PEaware :: SWA1227 KPDX-KOAK

SWA1227 :: KPDX-KOAK

FLIGHT INFORMATION

Flight Status: Arrived
Operator:
Southwest Airlines
More flights by this operator :: More flights under this callsign
Pilot: Peter N. (19445)
Aircraft: BOEING 737-800
(B738)
More flights by this aircraft type
Origin: KPDX Portland Intl
United States
Destination: KOAK Metro Oakland Intl
United States
More flights between these airports :: More routes between these airports
Route: MINNE5 HISKU Q5 HUPTU SPAMY WNDSR2
File this flight plan on PilotEdge
Remarks:
Altitude:
(Current/Filed)
410ft
Speed:
(Current/Filed)
447kts
Departed: 05-Oct-18 01:37 PM
Arrived: 05-Oct-18 03:11 PM
Distance/Time
Traveled:
473nm/1:34
Distance/Time
To Go:
Arrived

Flight Plot

Page will automatically refresh every two minutes.

Flight plan parsing failed; only flown route is shown


Map Options




Map Legend


Flown Route
Filed Route
Departure Airport
Arrival Airport
Navaid (VOR, NDB)
Fix

Horizontal Profiles

Position Reports

Time Latitude Longitude Heading Altitude Ground
Speed
05-Oct-18 13:25 45.589208 -122.598493 19 37ft 0kts
05-Oct-18 13:26 45.589208 -122.598493 19 37ft 0kts
05-Oct-18 13:27 45.589208 -122.598493 19 37ft 0kts
05-Oct-18 13:28 45.589208 -122.598493 19 37ft 0kts
05-Oct-18 13:29 45.589208 -122.598493 19 37ft 0kts
05-Oct-18 13:30 45.589208 -122.598493 19 37ft 0kts
05-Oct-18 13:31 45.589208 -122.598493 19 37ft 0kts
05-Oct-18 13:32 45.588980 -122.598609 18 37ft 2kts
05-Oct-18 13:33 45.588463 -122.598771 335 37ft 2kts
05-Oct-18 13:34 45.588286 -122.598512 299 37ft 0kts
05-Oct-18 13:35 45.588288 -122.598517 299 37ft 0kts
05-Oct-18 13:36 45.588841 -122.599914 295 37ft 1kts
05-Oct-18 13:37 45.591211 -122.602120 49 37ft 18kts
05-Oct-18 13:38 45.594393 -122.597646 42 37ft 2kts
05-Oct-18 13:39 45.590648 -122.585124 118 37ft 136kts
05-Oct-18 13:40 45.568339 -122.525118 117 2212ft 211kts
05-Oct-18 13:41 45.551124 -122.449694 83 4393ft 239kts
05-Oct-18 13:42 45.542763 -122.353933 120 7367ft 283kts
05-Oct-18 13:43 45.481909 -122.307383 185 10533ft 289kts
05-Oct-18 13:44 45.414098 -122.362850 242 13496ft 296kts
05-Oct-18 13:45 45.386611 -122.456709 248 16212ft 308kts
05-Oct-18 13:46 45.351843 -122.566233 248 19006ft 323kts
05-Oct-18 13:47 45.315223 -122.680603 247 21548ft 337kts
05-Oct-18 13:48 45.275547 -122.803673 247 23957ft 351kts
05-Oct-18 13:49 45.224448 -122.923128 222 26100ft 376kts
05-Oct-18 13:50 45.141728 -122.965783 186 27674ft 412kts
05-Oct-18 13:51 45.024853 -122.962283 184 29341ft 431kts
05-Oct-18 13:52 44.904752 -122.958006 185 31296ft 435kts
05-Oct-18 13:53 44.790817 -122.954007 185 33191ft 433kts
05-Oct-18 13:54 44.671258 -122.949857 185 35000ft 430kts
05-Oct-18 13:55 44.552444 -122.945836 185 36638ft 427kts
05-Oct-18 13:56 44.434364 -122.942034 185 38017ft 426kts
05-Oct-18 13:57 44.316320 -122.938491 185 39239ft 426kts
05-Oct-18 13:58 44.198176 -122.934963 185 40310ft 426kts
05-Oct-18 13:59 44.080004 -122.931451 185 41113ft 430kts
05-Oct-18 14:00 43.957400 -122.927926 185 41122ft 455kts
05-Oct-18 14:01 43.836665 -122.924335 184 41110ft 465kts
05-Oct-18 14:02 43.707882 -122.920405 184 41109ft 464kts
05-Oct-18 14:03 43.579244 -122.916517 184 41129ft 464kts
05-Oct-18 14:04 43.450263 -122.912649 184 41147ft 464kts
05-Oct-18 14:05 43.321747 -122.908804 184 41147ft 464kts
05-Oct-18 14:06 43.193248 -122.904968 184 41148ft 464kts
05-Oct-18 14:07 43.064838 -122.901136 184 41149ft 463kts
05-Oct-18 14:08 42.935502 -122.897292 185 41181ft 472kts
05-Oct-18 14:09 42.809310 -122.893553 186 41200ft 478kts
05-Oct-18 14:10 42.676827 -122.889593 185 41199ft 478kts
05-Oct-18 14:11 42.544821 -122.885632 186 41203ft 477kts
05-Oct-18 14:12 42.412656 -122.881748 185 41203ft 476kts
05-Oct-18 14:13 42.280415 -122.878020 185 41200ft 477kts
05-Oct-18 14:14 42.148468 -122.874297 186 41210ft 477kts
05-Oct-18 14:15 42.015966 -122.870526 186 41199ft 477kts
05-Oct-18 14:16 41.888392 -122.866924 185 41209ft 477kts
05-Oct-18 14:17 41.762105 -122.863375 185 41199ft 477kts
05-Oct-18 14:18 41.630080 -122.859654 186 41201ft 476kts
05-Oct-18 14:19 41.499499 -122.855977 185 41206ft 477kts
05-Oct-18 14:20 41.367504 -122.852277 185 41209ft 477kts
05-Oct-18 14:21 41.237327 -122.845816 184 41206ft 478kts
05-Oct-18 14:22 41.126778 -122.839163 184 41203ft 478kts
05-Oct-18 14:23 40.970152 -122.829946 184 41133ft 493kts
05-Oct-18 14:24 40.875990 -122.824393 185 41105ft 494kts
05-Oct-18 14:25 40.748878 -122.816946 185 41110ft 494kts
05-Oct-18 14:26 40.589268 -122.807635 185 41110ft 494kts
05-Oct-18 14:27 40.475294 -122.800985 185 41114ft 494kts
05-Oct-18 14:28 40.315310 -122.791654 185 41115ft 494kts
05-Oct-18 14:29 40.201460 -122.785023 184 41123ft 494kts
05-Oct-18 14:30 40.074883 -122.777641 185 41124ft 493kts
05-Oct-18 14:31 39.937502 -122.769704 184 41080ft 504kts
05-Oct-18 14:32 39.816646 -122.762643 184 40038ft 505kts
05-Oct-18 14:33 39.677767 -122.754443 185 36405ft 495kts
05-Oct-18 14:34 39.542841 -122.746595 184 32900ft 501kts
05-Oct-18 14:35 39.406890 -122.697830 160 29332ft 510kts
05-Oct-18 14:36 39.281095 -122.632146 161 25738ft 472kts
05-Oct-18 14:37 39.162114 -122.585257 177 23928ft 439kts
05-Oct-18 14:38 39.042232 -122.568383 177 23142ft 431kts
05-Oct-18 14:39 38.924260 -122.539490 171 22773ft 431kts
05-Oct-18 14:40 38.826927 -122.515075 171 21973ft 425kts
05-Oct-18 14:41 38.713458 -122.486752 170 19581ft 408kts
05-Oct-18 14:42 38.603150 -122.466428 175 17929ft 396kts
05-Oct-18 14:43 38.497015 -122.450450 174 15753ft 381kts
05-Oct-18 14:44 38.393618 -122.434791 174 13564ft 369kts
05-Oct-18 14:45 38.297223 -122.420209 174 11467ft 359kts
05-Oct-18 14:46 38.243015 -122.411987 174 11011ft 345kts
05-Oct-18 14:47 38.243015 -122.411987 174 11011ft 345kts
05-Oct-18 14:48 38.243015 -122.411987 174 11011ft 345kts
05-Oct-18 14:49 38.243015 -122.411987 174 11011ft 345kts
05-Oct-18 14:50 38.243015 -122.411987 174 11011ft 345kts
05-Oct-18 14:51 38.243015 -122.411987 174 11011ft 345kts
05-Oct-18 14:52 38.243015 -122.411987 174 11011ft 345kts
05-Oct-18 14:53 38.243015 -122.411987 174 11011ft 345kts
05-Oct-18 14:54 38.243015 -122.411987 174 11011ft 345kts
05-Oct-18 14:55 38.243015 -122.411987 174 11011ft 345kts
05-Oct-18 14:56 38.243015 -122.411987 174 11011ft 345kts
05-Oct-18 14:57 38.243015 -122.411987 174 11011ft 345kts
05-Oct-18 14:58 38.153165 -122.398281 174 10994ft 347kts
05-Oct-18 14:59 38.057723 -122.383719 173 10987ft 348kts
05-Oct-18 15:00 37.976513 -122.338395 142 9255ft 353kts
05-Oct-18 15:01 37.907781 -122.257663 133 6722ft 353kts
05-Oct-18 15:02 37.849214 -122.178647 133 5084ft 300kts
05-Oct-18 15:03 37.797292 -122.108316 133 5082ft 257kts
05-Oct-18 15:04 37.747129 -122.053075 161 4773ft 242kts
05-Oct-18 15:05 37.685012 -122.025776 163 4160ft 237kts
05-Oct-18 15:06 37.626856 -122.000376 163 3985ft 220kts
05-Oct-18 15:07 37.584282 -122.027023 266 3999ft 181kts
05-Oct-18 15:08 37.610112 -122.078090 309 2858ft 171kts
05-Oct-18 15:09 37.638973 -122.120682 308 1887ft 138kts
05-Oct-18 15:10 37.663017 -122.156658 309 1194ft 132kts
05-Oct-18 15:11 37.686692 -122.192114 309 495ft 133kts
05-Oct-18 15:12 37.707952 -122.224095 309 11ft 64kts
05-Oct-18 15:13 37.711127 -122.226397 8 11ft 4kts
05-Oct-18 15:14 37.712509 -122.221298 129 11ft 25kts
05-Oct-18 15:15 37.709901 -122.214495 60 11ft 18kts
05-Oct-18 15:16 37.710814 -122.212909 33 11ft 0kts
05-Oct-18 15:17 37.710814 -122.212910 33 11ft 0kts
05-Oct-18 15:18 37.710814 -122.212910 33 11ft 0kts
05-Oct-18 15:19 37.710814 -122.212910 33 11ft 0kts
05-Oct-18 15:20 37.710814 -122.212910 33 11ft 0kts

Navigation Log

Ident Type
Flight plan parsing failed, navigation log unavailable